sensor_id;sensor_type;location;lat;lon;timestamp;P1;durP1;ratioP1;P2;durP2;ratioP2
23684;SDS011;12020;51.384;6.908;2024-01-07T00:01:30;18.15;;;16.05;;
23684;SDS011;12020;51.384;6.908;2024-01-07T00:03:55;17.75;;;15.77;;
23684;SDS011;12020;51.384;6.908;2024-01-07T00:06:22;16.92;;;15.15;;
23684;SDS011;12020;51.384;6.908;2024-01-07T00:09:05;17.48;;;15.57;;
23684;SDS011;12020;51.384;6.908;2024-01-07T00:11:32;17.27;;;15.48;;
23684;SDS011;12020;51.384;6.908;2024-01-07T00:14:20;18.52;;;16.20;;
23684;SDS011;12020;51.384;6.908;2024-01-07T00:16:48;17.73;;;15.57;;
23684;SDS011;12020;51.384;6.908;2024-01-07T00:19:36;18.08;;;15.38;;
23684;SDS011;12020;51.384;6.908;2024-01-07T00:22:23;18.25;;;15.38;;
23684;SDS011;12020;51.384;6.908;2024-01-07T00:24:52;18.33;;;16.40;;
23684;SDS011;12020;51.384;6.908;2024-01-07T00:27:40;18.73;;;16.73;;
23684;SDS011;12020;51.384;6.908;2024-01-07T00:30:07;20.13;;;17.93;;
23684;SDS011;12020;51.384;6.908;2024-01-07T00:32:34;20.65;;;18.15;;
23684;SDS011;12020;51.384;6.908;2024-01-07T00:35:02;21.47;;;18.47;;
23684;SDS011;12020;51.384;6.908;2024-01-07T00:37:29;22.20;;;18.52;;
23684;SDS011;12020;51.384;6.908;2024-01-07T00:39:56;21.98;;;18.55;;
23684;SDS011;12020;51.384;6.908;2024-01-07T00:42:22;20.60;;;18.20;;
23684;SDS011;12020;51.384;6.908;2024-01-07T00:48:46;20.42;;;17.75;;
23684;SDS011;12020;51.384;6.908;2024-01-07T00:51:17;18.55;;;16.40;;
23684;SDS011;12020;51.384;6.908;2024-01-07T00:54:17;17.25;;;14.48;;
23684;SDS011;12020;51.384;6.908;2024-01-07T00:57:04;17.73;;;14.85;;
23684;SDS011;12020;51.384;6.908;2024-01-07T01:00:29;16.20;;;14.50;;
23684;SDS011;12020;51.384;6.908;2024-01-07T01:05:56;16.92;;;15.10;;
23684;SDS011;12020;51.384;6.908;2024-01-07T01:11:31;16.57;;;14.23;;
23684;SDS011;12020;51.384;6.908;2024-01-07T01:13:57;16.80;;;15.00;;
23684;SDS011;12020;51.384;6.908;2024-01-07T01:16:23;17.38;;;14.93;;
23684;SDS011;12020;51.384;6.908;2024-01-07T01:18:51;17.13;;;15.32;;
23684;SDS011;12020;51.384;6.908;2024-01-07T01:21:41;19.77;;;16.48;;
23684;SDS011;12020;51.384;6.908;2024-01-07T01:24:09;19.13;;;16.77;;
23684;SDS011;12020;51.384;6.908;2024-01-07T01:29:26;20.35;;;17.42;;
23684;SDS011;12020;51.384;6.908;2024-01-07T01:31:52;21.33;;;17.85;;
23684;SDS011;12020;51.384;6.908;2024-01-07T01:35:01;20.42;;;16.52;;
23684;SDS011;12020;51.384;6.908;2024-01-07T01:37:29;18.73;;;16.48;;
23684;SDS011;12020;51.384;6.908;2024-01-07T01:40:09;18.02;;;15.80;;
23684;SDS011;12020;51.384;6.908;2024-01-07T01:42:51;19.17;;;15.57;;
23684;SDS011;12020;51.384;6.908;2024-01-07T01:45:18;17.20;;;14.98;;
23684;SDS011;12020;51.384;6.908;2024-01-07T01:47:45;17.65;;;15.13;;
23684;SDS011;12020;51.384;6.908;2024-01-07T01:53:25;17.92;;;15.10;;
23684;SDS011;12020;51.384;6.908;2024-01-07T01:56:08;18.13;;;15.00;;
23684;SDS011;12020;51.384;6.908;2024-01-07T01:58:34;18.15;;;16.05;;
23684;SDS011;12020;51.384;6.908;2024-01-07T02:01:01;19.25;;;16.10;;
23684;SDS011;12020;51.384;6.908;2024-01-07T02:03:39;20.23;;;16.17;;
23684;SDS011;12020;51.384;6.908;2024-01-07T02:06:14;19.80;;;16.23;;
23684;SDS011;12020;51.384;6.908;2024-01-07T02:08:44;19.90;;;16.02;;
23684;SDS011;12020;51.384;6.908;2024-01-07T02:11:19;19.37;;;16.23;;
23684;SDS011;12020;51.384;6.908;2024-01-07T02:13:46;20.35;;;16.58;;
23684;SDS011;12020;51.384;6.908;2024-01-07T02:19:41;23.25;;;17.42;;
23684;SDS011;12020;51.384;6.908;2024-01-07T02:22:35;21.60;;;17.73;;
23684;SDS011;12020;51.384;6.908;2024-01-07T02:30:37;24.35;;;19.10;;
23684;SDS011;12020;51.384;6.908;2024-01-07T02:33:03;24.33;;;19.43;;
23684;SDS011;12020;51.384;6.908;2024-01-07T02:35:29;22.27;;;19.33;;
23684;SDS011;12020;51.384;6.908;2024-01-07T02:37:55;25.47;;;20.10;;
23684;SDS011;12020;51.384;6.908;2024-01-07T02:40:20;23.60;;;20.13;;
23684;SDS011;12020;51.384;6.908;2024-01-07T02:42:48;25.95;;;19.17;;
23684;SDS011;12020;51.384;6.908;2024-01-07T02:45:14;23.95;;;18.92;;
23684;SDS011;12020;51.384;6.908;2024-01-07T02:47:41;24.67;;;19.95;;
23684;SDS011;12020;51.384;6.908;2024-01-07T02:50:07;24.10;;;19.30;;
23684;SDS011;12020;51.384;6.908;2024-01-07T02:52:34;22.83;;;18.70;;
23684;SDS011;12020;51.384;6.908;2024-01-07T02:55:06;23.02;;;18.77;;
23684;SDS011;12020;51.384;6.908;2024-01-07T02:57:34;21.70;;;17.88;;
23684;SDS011;12020;51.384;6.908;2024-01-07T03:02:48;19.70;;;16.60;;
23684;SDS011;12020;51.384;6.908;2024-01-07T03:05:14;18.73;;;15.97;;
23684;SDS011;12020;51.384;6.908;2024-01-07T03:07:40;19.87;;;16.20;;
23684;SDS011;12020;51.384;6.908;2024-01-07T03:10:06;17.63;;;15.53;;
23684;SDS011;12020;51.384;6.908;2024-01-07T03:12:32;18.48;;;16.52;;
23684;SDS011;12020;51.384;6.908;2024-01-07T03:14:57;17.45;;;15.48;;
23684;SDS011;12020;51.384;6.908;2024-01-07T03:17:24;17.20;;;15.40;;
23684;SDS011;12020;51.384;6.908;2024-01-07T03:19:50;19.00;;;15.77;;
23684;SDS011;12020;51.384;6.908;2024-01-07T03:22:17;19.58;;;16.50;;
23684;SDS011;12020;51.384;6.908;2024-01-07T03:24:43;17.88;;;15.98;;
23684;SDS011;12020;51.384;6.908;2024-01-07T03:27:11;18.67;;;16.38;;
23684;SDS011;12020;51.384;6.908;2024-01-07T03:33:09;19.05;;;16.83;;
23684;SDS011;12020;51.384;6.908;2024-01-07T03:39:06;19.38;;;17.20;;
23684;SDS011;12020;51.384;6.908;2024-01-07T03:41:36;19.00;;;16.75;;
23684;SDS011;12020;51.384;6.908;2024-01-07T03:44:21;19.80;;;17.70;;
23684;SDS011;12020;51.384;6.908;2024-01-07T03:46:55;19.90;;;17.80;;
23684;SDS011;12020;51.384;6.908;2024-01-07T03:49:24;18.85;;;16.85;;
23684;SDS011;12020;51.384;6.908;2024-01-07T03:54:44;20.17;;;17.42;;
23684;SDS011;12020;51.384;6.908;2024-01-07T03:57:13;18.60;;;16.58;;
23684;SDS011;12020;51.384;6.908;2024-01-07T04:02:49;18.88;;;16.88;;
23684;SDS011;12020;51.384;6.908;2024-01-07T04:05:20;18.40;;;16.40;;
23684;SDS011;12020;51.384;6.908;2024-01-07T04:11:18;19.03;;;16.50;;
23684;SDS011;12020;51.384;6.908;2024-01-07T04:13:46;18.10;;;16.30;;
23684;SDS011;12020;51.384;6.908;2024-01-07T04:25:58;18.90;;;16.90;;
23684;SDS011;12020;51.384;6.908;2024-01-07T04:31:38;19.50;;;17.50;;
23684;SDS011;12020;51.384;6.908;2024-01-07T04:37:27;19.23;;;17.25;;
23684;SDS011;12020;51.384;6.908;2024-01-07T04:39:52;19.17;;;17.17;;
23684;SDS011;12020;51.384;6.908;2024-01-07T04:49:03;19.02;;;17.02;;
23684;SDS011;12020;51.384;6.908;2024-01-07T04:51:32;17.95;;;16.05;;
23684;SDS011;12020;51.384;6.908;2024-01-07T04:54:24;18.25;;;16.20;;
23684;SDS011;12020;51.384;6.908;2024-01-07T05:09:10;18.77;;;16.80;;
23684;SDS011;12020;51.384;6.908;2024-01-07T05:12:00;19.08;;;16.90;;
23684;SDS011;12020;51.384;6.908;2024-01-07T05:14:27;18.23;;;16.25;;
23684;SDS011;12020;51.384;6.908;2024-01-07T05:24:17;18.70;;;16.80;;
23684;SDS011;12020;51.384;6.908;2024-01-07T05:26:45;20.03;;;17.67;;
23684;SDS011;12020;51.384;6.908;2024-01-07T05:29:13;19.42;;;16.98;;
23684;SDS011;12020;51.384;6.908;2024-01-07T05:31:48;18.85;;;16.70;;
23684;SDS011;12020;51.384;6.908;2024-01-07T05:34:14;20.02;;;17.65;;
23684;SDS011;12020;51.384;6.908;2024-01-07T05:36:45;19.40;;;17.23;;
23684;SDS011;12020;51.384;6.908;2024-01-07T05:39:13;20.13;;;17.83;;
23684;SDS011;12020;51.384;6.908;2024-01-07T05:45:05;20.65;;;17.42;;
23684;SDS011;12020;51.384;6.908;2024-01-07T05:50:59;21.60;;;17.80;;
23684;SDS011;12020;51.384;6.908;2024-01-07T05:53:27;20.13;;;17.33;;
23684;SDS011;12020;51.384;6.908;2024-01-07T05:55:56;21.02;;;17.60;;
23684;SDS011;12020;51.384;6.908;2024-01-07T05:58:29;19.65;;;17.08;;
23684;SDS011;12020;51.384;6.908;2024-01-07T06:04:31;19.00;;;16.98;;
23684;SDS011;12020;51.384;6.908;2024-01-07T06:07:00;18.38;;;16.38;;
23684;SDS011;12020;51.384;6.908;2024-01-07T06:09:27;19.38;;;16.80;;
23684;SDS011;12020;51.384;6.908;2024-01-07T06:11:58;18.25;;;16.23;;
23684;SDS011;12020;51.384;6.908;2024-01-07T06:14:28;17.90;;;16.00;;
23684;SDS011;12020;51.384;6.908;2024-01-07T06:21:01;18.85;;;16.48;;
23684;SDS011;12020;51.384;6.908;2024-01-07T06:23:27;19.40;;;17.00;;
23684;SDS011;12020;51.384;6.908;2024-01-07T06:29:01;19.33;;;17.33;;
23684;SDS011;12020;51.384;6.908;2024-01-07T06:32:33;19.38;;;17.38;;
23684;SDS011;12020;51.384;6.908;2024-01-07T06:35:01;19.27;;;17.27;;
23684;SDS011;12020;51.384;6.908;2024-01-07T06:41:34;18.88;;;16.88;;
23684;SDS011;12020;51.384;6.908;2024-01-07T06:57:26;19.55;;;17.45;;
23684;SDS011;12020;51.384;6.908;2024-01-07T07:00:08;19.65;;;17.55;;
23684;SDS011;12020;51.384;6.908;2024-01-07T07:03:15;19.70;;;17.60;;
23684;SDS011;12020;51.384;6.908;2024-01-07T07:46:29;21.90;;;18.42;;
23684;SDS011;12020;51.384;6.908;2024-01-07T07:52:05;20.77;;;17.85;;
23684;SDS011;12020;51.384;6.908;2024-01-07T07:54:36;19.88;;;17.77;;
23684;SDS011;12020;51.384;6.908;2024-01-07T07:57:02;19.25;;;17.15;;
23684;SDS011;12020;51.384;6.908;2024-01-07T07:59:30;18.50;;;16.52;;
23684;SDS011;12020;51.384;6.908;2024-01-07T08:01:55;17.95;;;15.85;;
23684;SDS011;12020;51.384;6.908;2024-01-07T08:04:21;16.85;;;15.05;;
23684;SDS011;12020;51.384;6.908;2024-01-07T08:06:53;16.67;;;14.97;;
23684;SDS011;12020;51.384;6.908;2024-01-07T08:09:22;16.57;;;14.77;;
23684;SDS011;12020;51.384;6.908;2024-01-07T08:12:30;14.53;;;13.07;;
23684;SDS011;12020;51.384;6.908;2024-01-07T08:14:56;14.30;;;12.90;;
23684;SDS011;12020;51.384;6.908;2024-01-07T08:17:21;14.02;;;12.63;;
23684;SDS011;12020;51.384;6.908;2024-01-07T08:20:36;14.60;;;13.05;;
23684;SDS011;12020;51.384;6.908;2024-01-07T08:23:03;15.30;;;13.73;;
23684;SDS011;12020;51.384;6.908;2024-01-07T08:25:29;14.80;;;13.30;;
23684;SDS011;12020;51.384;6.908;2024-01-07T08:34:16;15.82;;;14.20;;
23684;SDS011;12020;51.384;6.908;2024-01-07T08:36:50;15.80;;;14.15;;
23684;SDS011;12020;51.384;6.908;2024-01-07T08:39:15;15.68;;;13.82;;
23684;SDS011;12020;51.384;6.908;2024-01-07T08:44:42;16.52;;;14.80;;
23684;SDS011;12020;51.384;6.908;2024-01-07T08:47:17;15.90;;;14.10;;
23684;SDS011;12020;51.384;6.908;2024-01-07T08:52:44;16.55;;;14.85;;
23684;SDS011;12020;51.384;6.908;2024-01-07T08:55:12;15.85;;;13.80;;
23684;SDS011;12020;51.384;6.908;2024-01-07T08:57:38;16.20;;;14.48;;
23684;SDS011;12020;51.384;6.908;2024-01-07T09:00:04;16.55;;;14.55;;
23684;SDS011;12020;51.384;6.908;2024-01-07T09:02:52;16.05;;;14.35;;
23684;SDS011;12020;51.384;6.908;2024-01-07T09:05:20;16.23;;;14.43;;
23684;SDS011;12020;51.384;6.908;2024-01-07T09:11:31;14.73;;;12.90;;
23684;SDS011;12020;51.384;6.908;2024-01-07T09:26:03;13.98;;;12.57;;
23684;SDS011;12020;51.384;6.908;2024-01-07T09:28:29;14.25;;;12.77;;
23684;SDS011;12020;51.384;6.908;2024-01-07T09:34:14;14.43;;;13.00;;
23684;SDS011;12020;51.384;6.908;2024-01-07T09:36:39;14.57;;;13.07;;
23684;SDS011;12020;51.384;6.908;2024-01-07T09:41:51;14.68;;;13.15;;
23684;SDS011;12020;51.384;6.908;2024-01-07T09:47:01;13.55;;;12.15;;
23684;SDS011;12020;51.384;6.908;2024-01-07T09:49:42;13.23;;;11.82;;
23684;SDS011;12020;51.384;6.908;2024-01-07T09:55:39;13.57;;;12.23;;
23684;SDS011;12020;51.384;6.908;2024-01-07T10:01:17;13.63;;;12.23;;
23684;SDS011;12020;51.384;6.908;2024-01-07T10:06:27;13.75;;;12.35;;
23684;SDS011;12020;51.384;6.908;2024-01-07T10:15:42;14.15;;;12.68;;
23684;SDS011;12020;51.384;6.908;2024-01-07T10:18:08;13.77;;;12.38;;
23684;SDS011;12020;51.384;6.908;2024-01-07T10:23:38;14.35;;;12.93;;
23684;SDS011;12020;51.384;6.908;2024-01-07T10:26:04;14.60;;;13.20;;
23684;SDS011;12020;51.384;6.908;2024-01-07T10:34:57;14.48;;;12.98;;
23684;SDS011;12020;51.384;6.908;2024-01-07T10:37:31;15.55;;;13.82;;
23684;SDS011;12020;51.384;6.908;2024-01-07T10:40:10;14.77;;;13.27;;
23684;SDS011;12020;51.384;6.908;2024-01-07T10:42:39;15.18;;;13.55;;
23684;SDS011;12020;51.384;6.908;2024-01-07T10:45:10;14.70;;;13.02;;
23684;SDS011;12020;51.384;6.908;2024-01-07T10:50:53;14.18;;;12.70;;
23684;SDS011;12020;51.384;6.908;2024-01-07T10:53:37;13.50;;;11.98;;
23684;SDS011;12020;51.384;6.908;2024-01-07T10:59:16;14.32;;;11.82;;
23684;SDS011;12020;51.384;6.908;2024-01-07T11:01:43;11.40;;;9.95;;
23684;SDS011;12020;51.384;6.908;2024-01-07T11:06:49;11.20;;;10.00;;
23684;SDS011;12020;51.384;6.908;2024-01-07T11:16:41;10.82;;;9.73;;
23684;SDS011;12020;51.384;6.908;2024-01-07T11:28:14;10.85;;;9.75;;
23684;SDS011;12020;51.384;6.908;2024-01-07T11:34:58;9.88;;;8.88;;
23684;SDS011;12020;51.384;6.908;2024-01-07T11:37:18;9.77;;;8.77;;
23684;SDS011;12020;51.384;6.908;2024-01-07T11:39:45;10.20;;;9.20;;
23684;SDS011;12020;51.384;6.908;2024-01-07T11:42:12;9.73;;;8.77;;
23684;SDS011;12020;51.384;6.908;2024-01-07T11:47:34;9.35;;;8.45;;
23684;SDS011;12020;51.384;6.908;2024-01-07T11:52:56;9.15;;;8.35;;
23684;SDS011;12020;51.384;6.908;2024-01-07T11:58:38;9.18;;;8.27;;
23684;SDS011;12020;51.384;6.908;2024-01-07T12:01:09;8.90;;;8.00;;
23684;SDS011;12020;51.384;6.908;2024-01-07T12:04:22;8.23;;;7.50;;
23684;SDS011;12020;51.384;6.908;2024-01-07T12:06:59;8.45;;;7.65;;
23684;SDS011;12020;51.384;6.908;2024-01-07T12:09:26;8.05;;;7.25;;
23684;SDS011;12020;51.384;6.908;2024-01-07T12:11:52;7.73;;;7.03;;
23684;SDS011;12020;51.384;6.908;2024-01-07T12:16:53;7.18;;;6.47;;
23684;SDS011;12020;51.384;6.908;2024-01-07T12:19:20;7.57;;;6.50;;
23684;SDS011;12020;51.384;6.908;2024-01-07T12:21:49;6.63;;;6.03;;
23684;SDS011;12020;51.384;6.908;2024-01-07T12:24:31;7.57;;;6.78;;
23684;SDS011;12020;51.384;6.908;2024-01-07T12:30:51;7.38;;;6.10;;
23684;SDS011;12020;51.384;6.908;2024-01-07T12:33:17;7.03;;;6.30;;
23684;SDS011;12020;51.384;6.908;2024-01-07T12:35:47;6.50;;;5.90;;
23684;SDS011;12020;51.384;6.908;2024-01-07T12:38:13;6.47;;;5.88;;
23684;SDS011;12020;51.384;6.908;2024-01-07T12:40:39;6.30;;;5.70;;
23684;SDS011;12020;51.384;6.908;2024-01-07T12:56:28;6.18;;;5.50;;
23684;SDS011;12020;51.384;6.908;2024-01-07T12:58:54;5.63;;;4.95;;
23684;SDS011;12020;51.384;6.908;2024-01-07T13:01:20;6.10;;;5.50;;
23684;SDS011;12020;51.384;6.908;2024-01-07T13:17:54;6.28;;;5.25;;
23684;SDS011;12020;51.384;6.908;2024-01-07T13:21:00;6.63;;;5.50;;
23684;SDS011;12020;51.384;6.908;2024-01-07T13:23:26;6.38;;;5.53;;
23684;SDS011;12020;51.384;6.908;2024-01-07T13:25:53;6.45;;;5.68;;
23684;SDS011;12020;51.384;6.908;2024-01-07T13:28:19;7.20;;;6.50;;
23684;SDS011;12020;51.384;6.908;2024-01-07T13:30:45;6.00;;;5.43;;
23684;SDS011;12020;51.384;6.908;2024-01-07T13:33:10;6.50;;;5.90;;
23684;SDS011;12020;51.384;6.908;2024-01-07T13:35:36;6.60;;;5.90;;
23684;SDS011;12020;51.384;6.908;2024-01-07T13:38:01;5.90;;;5.40;;
23684;SDS011;12020;51.384;6.908;2024-01-07T13:40:28;6.40;;;5.80;;
23684;SDS011;12020;51.384;6.908;2024-01-07T13:42:54;6.10;;;5.45;;
23684;SDS011;12020;51.384;6.908;2024-01-07T13:45:25;6.38;;;5.60;;
23684;SDS011;12020;51.384;6.908;2024-01-07T13:47:51;6.25;;;5.65;;
23684;SDS011;12020;51.384;6.908;2024-01-07T13:50:17;6.07;;;5.57;;
23684;SDS011;12020;51.384;6.908;2024-01-07T13:52:43;7.65;;;5.72;;
23684;SDS011;12020;51.384;6.908;2024-01-07T13:55:08;6.33;;;5.60;;
23684;SDS011;12020;51.384;6.908;2024-01-07T13:57:36;6.22;;;5.63;;
23684;SDS011;12020;51.384;6.908;2024-01-07T14:00:04;5.90;;;5.30;;
23684;SDS011;12020;51.384;6.908;2024-01-07T14:02:49;6.05;;;5.40;;
23684;SDS011;12020;51.384;6.908;2024-01-07T14:05:24;6.88;;;5.60;;
23684;SDS011;12020;51.384;6.908;2024-01-07T14:07:50;5.97;;;5.40;;
23684;SDS011;12020;51.384;6.908;2024-01-07T14:10:36;6.60;;;6.00;;
23684;SDS011;12020;51.384;6.908;2024-01-07T14:13:02;6.13;;;5.53;;
23684;SDS011;12020;51.384;6.908;2024-01-07T14:15:27;5.45;;;4.93;;
23684;SDS011;12020;51.384;6.908;2024-01-07T14:42:16;3.25;;;2.92;;
23684;SDS011;12020;51.384;6.908;2024-01-07T14:56:45;3.67;;;2.80;;
23684;SDS011;12020;51.384;6.908;2024-01-07T14:59:13;3.60;;;2.63;;
23684;SDS011;12020;51.384;6.908;2024-01-07T15:05:08;4.18;;;2.53;;
23684;SDS011;12020;51.384;6.908;2024-01-07T15:07:36;2.67;;;2.47;;
23684;SDS011;12020;51.384;6.908;2024-01-07T15:10:03;3.60;;;2.57;;
23684;SDS011;12020;51.384;6.908;2024-01-07T15:16:28;2.90;;;2.60;;
23684;SDS011;12020;51.384;6.908;2024-01-07T15:19:54;3.00;;;2.70;;
23684;SDS011;12020;51.384;6.908;2024-01-07T15:22:36;3.00;;;2.70;;
23684;SDS011;12020;51.384;6.908;2024-01-07T15:29:24;3.10;;;2.80;;
23684;SDS011;12020;51.384;6.908;2024-01-07T15:31:56;2.95;;;2.65;;
23684;SDS011;12020;51.384;6.908;2024-01-07T15:37:57;4.07;;;2.70;;
23684;SDS011;12020;51.384;6.908;2024-01-07T15:40:27;3.28;;;2.45;;
23684;SDS011;12020;51.384;6.908;2024-01-07T15:42:58;3.15;;;2.70;;
23684;SDS011;12020;51.384;6.908;2024-01-07T15:45:30;3.30;;;3.00;;
23684;SDS011;12020;51.384;6.908;2024-01-07T15:48:24;3.35;;;2.55;;
23684;SDS011;12020;51.384;6.908;2024-01-07T15:51:43;3.53;;;2.65;;
23684;SDS011;12020;51.384;6.908;2024-01-07T17:18:41;3.33;;;2.80;;
23684;SDS011;12020;51.384;6.908;2024-01-07T19:28:30;5.55;;;4.72;;
23684;SDS011;12020;51.384;6.908;2024-01-07T19:30:57;5.60;;;4.70;;
23684;SDS011;12020;51.384;6.908;2024-01-07T19:33:36;5.35;;;4.70;;
23684;SDS011;12020;51.384;6.908;2024-01-07T19:36:26;5.78;;;4.93;;
23684;SDS011;12020;51.384;6.908;2024-01-07T19:39:16;7.43;;;5.40;;
23684;SDS011;12020;51.384;6.908;2024-01-07T19:41:41;6.32;;;5.38;;
23684;SDS011;12020;51.384;6.908;2024-01-07T19:44:13;5.50;;;4.85;;
23684;SDS011;12020;51.384;6.908;2024-01-07T19:46:39;6.13;;;5.10;;
23684;SDS011;12020;51.384;6.908;2024-01-07T19:49:05;5.97;;;5.38;;
23684;SDS011;12020;51.384;6.908;2024-01-07T19:51:31;6.45;;;4.97;;
23684;SDS011;12020;51.384;6.908;2024-01-07T19:53:57;7.53;;;5.37;;
23684;SDS011;12020;51.384;6.908;2024-01-07T19:56:26;6.93;;;5.40;;
23684;SDS011;12020;51.384;6.908;2024-01-07T20:01:54;6.90;;;5.32;;
23684;SDS011;12020;51.384;6.908;2024-01-07T20:04:58;6.88;;;5.35;;
23684;SDS011;12020;51.384;6.908;2024-01-07T20:07:27;5.97;;;5.22;;
23684;SDS011;12020;51.384;6.908;2024-01-07T20:09:54;7.00;;;5.20;;
23684;SDS011;12020;51.384;6.908;2024-01-07T20:15:11;6.45;;;5.75;;
23684;SDS011;12020;51.384;6.908;2024-01-07T20:17:37;6.40;;;5.70;;
23684;SDS011;12020;51.384;6.908;2024-01-07T20:20:03;6.90;;;6.20;;
23684;SDS011;12020;51.384;6.908;2024-01-07T20:22:48;7.70;;;6.17;;
23684;SDS011;12020;51.384;6.908;2024-01-07T20:25:39;8.65;;;7.15;;
23684;SDS011;12020;51.384;6.908;2024-01-07T20:28:05;7.70;;;6.65;;
23684;SDS011;12020;51.384;6.908;2024-01-07T20:30:31;8.47;;;6.80;;
23684;SDS011;12020;51.384;6.908;2024-01-07T20:33:00;8.35;;;7.38;;
23684;SDS011;12020;51.384;6.908;2024-01-07T20:35:30;10.15;;;7.82;;
23684;SDS011;12020;51.384;6.908;2024-01-07T20:38:01;8.13;;;7.30;;
23684;SDS011;12020;51.384;6.908;2024-01-07T20:40:28;9.48;;;7.85;;
23684;SDS011;12020;51.384;6.908;2024-01-07T20:45:52;9.40;;;7.88;;
23684;SDS011;12020;51.384;6.908;2024-01-07T20:48:23;9.70;;;8.65;;
23684;SDS011;12020;51.384;6.908;2024-01-07T20:51:05;9.33;;;8.37;;
23684;SDS011;12020;51.384;6.908;2024-01-07T20:59:29;9.40;;;8.45;;
23684;SDS011;12020;51.384;6.908;2024-01-07T21:01:57;9.88;;;8.88;;
23684;SDS011;12020;51.384;6.908;2024-01-07T21:04:25;9.77;;;8.77;;
23684;SDS011;12020;51.384;6.908;2024-01-07T21:08:03;9.45;;;8.05;;
23684;SDS011;12020;51.384;6.908;2024-01-07T21:10:49;8.68;;;7.78;;
23684;SDS011;12020;51.384;6.908;2024-01-07T21:13:24;8.50;;;7.60;;
23684;SDS011;12020;51.384;6.908;2024-01-07T21:16:25;8.82;;;7.50;;
23684;SDS011;12020;51.384;6.908;2024-01-07T21:19:25;8.18;;;7.32;;
23684;SDS011;12020;51.384;6.908;2024-01-07T21:21:50;9.23;;;7.53;;
23684;SDS011;12020;51.384;6.908;2024-01-07T21:24:19;10.60;;;7.65;;
23684;SDS011;12020;51.384;6.908;2024-01-07T21:26:46;8.82;;;7.40;;
23684;SDS011;12020;51.384;6.908;2024-01-07T21:29:13;8.80;;;7.70;;
23684;SDS011;12020;51.384;6.908;2024-01-07T21:31:40;8.55;;;7.20;;
23684;SDS011;12020;51.384;6.908;2024-01-07T21:34:06;8.10;;;7.10;;
23684;SDS011;12020;51.384;6.908;2024-01-07T21:36:38;8.13;;;6.80;;
23684;SDS011;12020;51.384;6.908;2024-01-07T21:39:24;7.78;;;6.97;;
23684;SDS011;12020;51.384;6.908;2024-01-07T21:41:49;7.28;;;6.30;;
23684;SDS011;12020;51.384;6.908;2024-01-07T21:59:41;6.65;;;5.97;;
23684;SDS011;12020;51.384;6.908;2024-01-07T22:02:07;6.50;;;5.80;;
23684;SDS011;12020;51.384;6.908;2024-01-07T22:04:35;6.45;;;5.68;;
23684;SDS011;12020;51.384;6.908;2024-01-07T22:07:01;6.50;;;5.47;;
23684;SDS011;12020;51.384;6.908;2024-01-07T22:09:27;5.80;;;5.20;;
23684;SDS011;12020;51.384;6.908;2024-01-07T22:11:52;6.87;;;5.20;;
23684;SDS011;12020;51.384;6.908;2024-01-07T22:14:18;5.45;;;4.80;;
23684;SDS011;12020;51.384;6.908;2024-01-07T22:16:48;5.57;;;4.70;;
23684;SDS011;12020;51.384;6.908;2024-01-07T22:19:14;5.40;;;4.90;;
23684;SDS011;12020;51.384;6.908;2024-01-07T22:21:41;6.50;;;4.50;;
23684;SDS011;12020;51.384;6.908;2024-01-07T22:24:11;5.00;;;4.40;;
23684;SDS011;12020;51.384;6.908;2024-01-07T22:26:37;5.70;;;4.40;;
23684;SDS011;12020;51.384;6.908;2024-01-07T22:29:08;5.55;;;4.40;;
23684;SDS011;12020;51.384;6.908;2024-01-07T22:31:37;5.72;;;4.03;;
23684;SDS011;12020;51.384;6.908;2024-01-07T22:34:04;5.00;;;4.13;;
23684;SDS011;12020;51.384;6.908;2024-01-07T22:36:30;4.72;;;3.90;;
23684;SDS011;12020;51.384;6.908;2024-01-07T22:38:56;4.32;;;3.92;;
23684;SDS011;12020;51.384;6.908;2024-01-07T22:41:22;4.00;;;3.60;;
23684;SDS011;12020;51.384;6.908;2024-01-07T22:43:55;4.28;;;3.58;;
23684;SDS011;12020;51.384;6.908;2024-01-07T22:46:21;4.87;;;4.10;;
23684;SDS011;12020;51.384;6.908;2024-01-07T22:48:52;4.00;;;3.60;;
23684;SDS011;12020;51.384;6.908;2024-01-07T22:51:18;4.57;;;3.38;;
23684;SDS011;12020;51.384;6.908;2024-01-07T22:53:44;4.60;;;3.50;;
23684;SDS011;12020;51.384;6.908;2024-01-07T22:56:09;4.30;;;3.83;;
23684;SDS011;12020;51.384;6.908;2024-01-07T22:58:37;4.03;;;3.40;;
23684;SDS011;12020;51.384;6.908;2024-01-07T23:01:03;3.90;;;3.50;;
23684;SDS011;12020;51.384;6.908;2024-01-07T23:03:29;4.63;;;3.73;;
23684;SDS011;12020;51.384;6.908;2024-01-07T23:05:55;3.90;;;3.50;;
23684;SDS011;12020;51.384;6.908;2024-01-07T23:08:20;4.38;;;3.53;;
23684;SDS011;12020;51.384;6.908;2024-01-07T23:10:47;4.00;;;3.60;;
23684;SDS011;12020;51.384;6.908;2024-01-07T23:13:12;4.10;;;3.60;;
23684;SDS011;12020;51.384;6.908;2024-01-07T23:15:38;4.30;;;3.90;;
23684;SDS011;12020;51.384;6.908;2024-01-07T23:18:04;4.57;;;3.60;;
23684;SDS011;12020;51.384;6.908;2024-01-07T23:20:31;4.27;;;3.87;;
23684;SDS011;12020;51.384;6.908;2024-01-07T23:22:58;4.53;;;4.07;;
23684;SDS011;12020;51.384;6.908;2024-01-07T23:25:24;5.28;;;4.22;;
23684;SDS011;12020;51.384;6.908;2024-01-07T23:27:50;5.13;;;4.25;;
23684;SDS011;12020;51.384;6.908;2024-01-07T23:30:17;4.63;;;4.22;;
23684;SDS011;12020;51.384;6.908;2024-01-07T23:32:43;4.43;;;4.03;;
23684;SDS011;12020;51.384;6.908;2024-01-07T23:35:09;4.17;;;3.20;;
23684;SDS011;12020;51.384;6.908;2024-01-07T23:37:34;2.97;;;2.67;;
23684;SDS011;12020;51.384;6.908;2024-01-07T23:40:03;3.25;;;2.85;;
23684;SDS011;12020;51.384;6.908;2024-01-07T23:42:30;3.60;;;2.80;;
23684;SDS011;12020;51.384;6.908;2024-01-07T23:44:57;2.85;;;2.60;;
23684;SDS011;12020;51.384;6.908;2024-01-07T23:47:23;3.00;;;2.70;;
23684;SDS011;12020;51.384;6.908;2024-01-07T23:49:49;3.73;;;2.70;;
23684;SDS011;12020;51.384;6.908;2024-01-07T23:52:14;3.07;;;2.77;;
23684;SDS011;12020;51.384;6.908;2024-01-07T23:54:40;3.40;;;2.80;;
23684;SDS011;12020;51.384;6.908;2024-01-07T23:57:07;3.28;;;2.80;;
23684;SDS011;12020;51.384;6.908;2024-01-07T23:59:33;3.10;;;2.80;;
